createdAt,value
2022-08-23T00:01:43.494Z,100.00
2022-08-23T00:04:13.701Z,100.00
2022-08-23T00:06:41.104Z,100.00
2022-08-23T00:09:07.986Z,100.00
2022-08-23T00:11:37.028Z,100.00
2022-08-23T00:14:05.734Z,100.00
2022-08-23T00:16:32.331Z,100.00
2022-08-23T00:18:59.433Z,100.00
2022-08-23T00:21:28.392Z,100.00
2022-08-23T00:23:55.398Z,100.00
2022-08-23T00:26:22.190Z,100.00
2022-08-23T00:28:49.643Z,100.00
2022-08-23T00:31:16.243Z,100.00
2022-08-23T00:33:42.769Z,100.00
2022-08-23T00:36:09.310Z,100.00
2022-08-23T00:38:37.428Z,100.00
2022-08-23T00:41:04.866Z,100.00
2022-08-23T00:43:54.135Z,100.00
2022-08-23T00:46:46.224Z,100.00
2022-08-23T00:49:13.394Z,100.00
2022-08-23T00:51:52.604Z,100.00
2022-08-23T00:54:22.947Z,100.00
2022-08-23T00:56:49.895Z,100.00
2022-08-23T00:59:16.835Z,100.00
2022-08-23T01:01:44.180Z,100.00
2022-08-23T01:04:11.644Z,100.00
2022-08-23T01:06:44.129Z,100.00
2022-08-23T01:09:13.679Z,100.00
2022-08-23T01:11:44.706Z,100.00
2022-08-23T01:14:13.185Z,100.00
2022-08-23T01:16:43.402Z,100.00
2022-08-23T01:19:13.923Z,100.00
2022-08-23T01:21:43.685Z,100.00
2022-08-23T01:24:19.126Z,100.00
2022-08-23T01:26:59.996Z,100.00
2022-08-23T01:29:26.602Z,100.00
2022-08-23T01:31:53.157Z,100.00
2022-08-23T01:34:24.898Z,100.00
2022-08-23T01:36:51.599Z,100.00
2022-08-23T01:39:19.531Z,100.00
2022-08-23T01:41:46.349Z,100.00
2022-08-23T01:44:13.479Z,100.00
2022-08-23T01:46:42.880Z,100.00
2022-08-23T01:49:09.476Z,100.00
2022-08-23T01:51:36.070Z,100.00
2022-08-23T01:54:02.766Z,100.00
2022-08-23T01:56:38.854Z,100.00
2022-08-23T01:59:06.479Z,100.00
2022-08-23T02:01:33.360Z,100.00
2022-08-23T02:04:02.550Z,100.00
2022-08-23T02:06:31.809Z,100.00
2022-08-23T02:09:01.014Z,100.00
2022-08-23T02:11:32.749Z,100.00
2022-08-23T02:14:00.528Z,100.00
2022-08-23T02:16:28.153Z,100.00
2022-08-23T02:18:56.439Z,100.00
2022-08-23T02:21:23.249Z,100.00
2022-08-23T02:23:51.593Z,100.00
2022-08-23T02:26:18.343Z,100.00
2022-08-23T02:28:46.760Z,100.00
2022-08-23T02:31:13.462Z,100.00
2022-08-23T02:33:40.650Z,100.00
2022-08-23T02:36:07.622Z,100.00
2022-08-23T02:38:34.251Z,100.00
2022-08-23T02:41:01.411Z,100.00
2022-08-23T02:43:28.063Z,100.00
2022-08-23T02:45:55.980Z,100.00
2022-08-23T02:48:22.814Z,100.00
2022-08-23T02:50:49.962Z,100.00
2022-08-23T02:53:17.213Z,100.00
2022-08-23T02:55:44.891Z,100.00
2022-08-23T02:58:11.456Z,100.00
2022-08-23T03:00:40.940Z,100.00
2022-08-23T03:03:08.982Z,100.00
2022-08-23T03:05:35.500Z,100.00
2022-08-23T03:08:02.264Z,100.00
2022-08-23T03:10:28.996Z,100.00
2022-08-23T03:12:55.568Z,100.00
2022-08-23T03:15:22.242Z,100.00
2022-08-23T03:17:48.986Z,100.00
2022-08-23T03:20:17.065Z,100.00
2022-08-23T03:22:49.024Z,100.00
2022-08-23T03:25:21.692Z,100.00
2022-08-23T03:27:48.315Z,100.00
2022-08-23T03:30:19.220Z,100.00
2022-08-23T03:32:49.065Z,100.00
2022-08-23T03:35:17.445Z,100.00
2022-08-23T03:37:44.006Z,100.00
2022-08-23T03:40:11.717Z,100.00
2022-08-23T03:42:38.379Z,100.00
2022-08-23T03:45:05.393Z,100.00
2022-08-23T03:47:31.997Z,100.00
2022-08-23T03:49:58.602Z,100.00
2022-08-23T03:52:26.570Z,100.00
2022-08-23T03:54:53.112Z,100.00
2022-08-23T03:57:19.786Z,100.00
2022-08-23T03:59:47.827Z,100.00
2022-08-23T04:02:15.122Z,100.00
2022-08-23T04:04:42.383Z,100.00
2022-08-23T04:07:09.139Z,100.00
2022-08-23T04:09:37.266Z,100.00
2022-08-23T04:12:04.106Z,100.00
2022-08-23T04:14:38.812Z,100.00
2022-08-23T04:17:05.511Z,100.00
2022-08-23T04:19:32.225Z,100.00
2022-08-23T04:21:58.806Z,100.00
2022-08-23T04:24:25.396Z,100.00
2022-08-23T04:26:53.401Z,100.00
2022-08-23T04:29:33.691Z,100.00
2022-08-23T04:32:02.077Z,100.00
2022-08-23T04:34:32.728Z,100.00
2022-08-23T04:37:02.292Z,100.00
2022-08-23T04:39:28.987Z,100.00
2022-08-23T04:42:15.187Z,100.00
2022-08-23T04:44:41.755Z,100.00
2022-08-23T04:47:08.708Z,100.00
2022-08-23T04:49:35.266Z,100.00
2022-08-23T04:52:02.051Z,100.00
2022-08-23T04:54:29.378Z,100.00
2022-08-23T04:56:57.425Z,100.00
2022-08-23T04:59:24.144Z,100.00
2022-08-23T05:01:51.306Z,100.00
2022-08-23T05:04:18.387Z,100.00
2022-08-23T05:06:45.822Z,100.00
2022-08-23T05:09:15.092Z,100.00
2022-08-23T05:11:45.792Z,100.00
2022-08-23T05:14:13.685Z,100.00
2022-08-23T05:16:40.266Z,100.00
2022-08-23T05:19:06.865Z,100.00
2022-08-23T05:21:33.464Z,100.00
2022-08-23T05:24:00.535Z,100.00
2022-08-23T05:26:30.288Z,100.00
2022-08-23T05:28:56.877Z,100.00
2022-08-23T05:31:27.442Z,100.00
2022-08-23T05:33:54.402Z,100.00
2022-08-23T05:36:21.550Z,100.00
2022-08-23T05:38:49.467Z,100.00
2022-08-23T05:41:16.841Z,100.00
2022-08-23T05:43:43.474Z,100.00
2022-08-23T05:46:12.674Z,100.00
2022-08-23T05:48:41.852Z,100.00
2022-08-23T05:51:10.350Z,100.00
2022-08-23T05:53:37.193Z,100.00
2022-08-23T05:56:08.913Z,100.00
2022-08-23T05:58:35.468Z,100.00
2022-08-23T06:01:02.118Z,100.00
2022-08-23T06:03:28.928Z,100.00
2022-08-23T06:05:58.804Z,100.00
2022-08-23T06:08:25.945Z,100.00
2022-08-23T06:10:59.731Z,100.00
2022-08-23T06:13:26.290Z,100.00
2022-08-23T06:15:53.085Z,100.00
2022-08-23T06:18:20.916Z,100.00
2022-08-23T06:20:47.675Z,100.00
2022-08-23T06:23:15.697Z,100.00
2022-08-23T06:25:42.303Z,100.00
2022-08-23T06:28:09.535Z,100.00
2022-08-23T06:30:39.711Z,100.00
2022-08-23T06:33:06.523Z,100.00
2022-08-23T06:35:39.802Z,100.00
2022-08-23T06:38:07.002Z,100.00
2022-08-23T06:40:35.486Z,100.00
2022-08-23T06:43:02.227Z,100.00
2022-08-23T06:45:35.122Z,100.00
2022-08-23T06:48:02.583Z,100.00
2022-08-23T06:50:32.385Z,100.00
2022-08-23T06:52:59.283Z,100.00
2022-08-23T06:55:25.905Z,100.00
2022-08-23T06:57:53.820Z,100.00
2022-08-23T07:00:27.228Z,100.00
2022-08-23T07:02:53.836Z,100.00
2022-08-23T07:05:21.486Z,100.00
2022-08-23T07:07:48.006Z,100.00
2022-08-23T07:10:15.566Z,100.00
2022-08-23T07:12:42.874Z,100.00
2022-08-23T07:15:12.911Z,100.00
2022-08-23T07:17:39.769Z,100.00
2022-08-23T07:20:06.819Z,100.00
2022-08-23T07:22:33.580Z,100.00
2022-08-23T07:25:00.110Z,100.00
2022-08-23T07:27:26.690Z,100.00
2022-08-23T07:29:53.314Z,100.00
2022-08-23T07:32:21.324Z,100.00
2022-08-23T07:34:47.858Z,100.00
2022-08-23T07:37:15.765Z,100.00
2022-08-23T07:39:42.865Z,100.00
2022-08-23T07:42:23.634Z,100.00
2022-08-23T07:44:51.703Z,100.00
2022-08-23T07:47:19.537Z,100.00
2022-08-23T07:49:47.553Z,100.00
2022-08-23T07:52:14.107Z,100.00
2022-08-23T07:54:40.638Z,100.00
2022-08-23T07:57:12.399Z,100.00
2022-08-23T07:59:38.964Z,100.00
2022-08-23T08:02:05.886Z,100.00
2022-08-23T08:04:32.544Z,100.00
2022-08-23T08:07:18.404Z,100.00
2022-08-23T08:09:47.261Z,100.00
2022-08-23T08:12:13.851Z,100.00
2022-08-23T08:14:42.129Z,100.00
2022-08-23T08:17:08.758Z,100.00
2022-08-23T08:19:35.316Z,100.00
2022-08-23T08:22:03.328Z,100.00
2022-08-23T08:24:32.833Z,100.00
2022-08-23T08:26:59.423Z,100.00
2022-08-23T08:29:25.996Z,100.00
2022-08-23T08:31:54.487Z,100.00
2022-08-23T08:34:21.228Z,100.00
2022-08-23T08:36:49.517Z,100.00
2022-08-23T08:39:19.596Z,100.00
2022-08-23T08:42:04.498Z,100.00
2022-08-23T08:44:37.295Z,100.00
2022-08-23T08:47:07.603Z,100.00
2022-08-23T08:49:37.461Z,100.00
2022-08-23T08:52:11.317Z,100.00
2022-08-23T08:54:43.872Z,100.00
2022-08-23T08:57:16.098Z,100.00
2022-08-23T08:59:48.862Z,100.00
2022-08-23T09:02:32.850Z,100.00
2022-08-23T09:05:02.253Z,100.00
2022-08-23T09:07:32.126Z,100.00
2022-08-23T09:10:16.854Z,100.00
2022-08-23T09:12:51.448Z,100.00
2022-08-23T09:15:23.966Z,100.00
2022-08-23T09:17:52.201Z,100.00
2022-08-23T09:20:20.714Z,100.00
2022-08-23T09:22:48.841Z,100.00
2022-08-23T09:25:17.017Z,100.00
2022-08-23T09:27:45.700Z,100.00
2022-08-23T09:30:13.565Z,100.00
2022-08-23T09:32:42.262Z,100.00
2022-08-23T09:35:11.363Z,100.00
2022-08-23T09:37:49.941Z,100.00
2022-08-23T09:40:17.997Z,100.00
2022-08-23T09:42:47.427Z,100.00
2022-08-23T09:45:24.676Z,100.00
2022-08-23T09:47:51.257Z,100.00
2022-08-23T09:50:25.146Z,100.00
2022-08-23T09:52:54.945Z,100.00
2022-08-23T09:55:31.882Z,100.00
2022-08-23T09:58:01.265Z,100.00
2022-08-23T10:00:29.772Z,100.00
2022-08-23T10:03:17.868Z,100.00
2022-08-23T10:05:52.182Z,100.00
2022-08-23T10:08:22.900Z,100.00
2022-08-23T10:10:51.819Z,100.00
2022-08-23T10:13:20.714Z,100.00
2022-08-23T10:15:52.406Z,100.00
2022-08-23T10:18:26.072Z,100.00
2022-08-23T10:20:57.883Z,100.00
2022-08-23T10:23:34.043Z,100.00
2022-08-23T10:26:00.843Z,100.00
2022-08-23T10:28:52.867Z,100.00
2022-08-23T10:31:26.982Z,100.00
2022-08-23T10:33:59.553Z,100.00
2022-08-23T10:36:29.135Z,100.00
2022-08-23T10:38:57.574Z,100.00
2022-08-23T10:41:38.365Z,100.00
2022-08-23T10:44:13.796Z,100.00
2022-08-23T10:46:52.271Z,100.00
2022-08-23T10:49:19.149Z,100.00
2022-08-23T10:51:48.943Z,100.00
2022-08-23T10:54:34.574Z,100.00
2022-08-23T10:57:02.108Z,100.00
2022-08-23T10:59:30.469Z,100.00
2022-08-23T11:02:01.177Z,100.00
2022-08-23T11:04:30.317Z,100.00
2022-08-23T11:06:58.051Z,100.00
2022-08-23T11:09:45.279Z,100.00
2022-08-23T11:12:27.682Z,100.00
2022-08-23T11:15:15.266Z,100.00
2022-08-23T11:17:54.039Z,100.00
2022-08-23T11:20:35.587Z,100.00
2022-08-23T11:23:11.686Z,100.00
2022-08-23T11:25:39.513Z,100.00
2022-08-23T11:28:20.922Z,100.00
2022-08-23T11:30:49.802Z,100.00
2022-08-23T11:33:20.895Z,100.00
2022-08-23T11:35:48.995Z,100.00
2022-08-23T11:38:17.297Z,100.00
2022-08-23T11:41:07.213Z,100.00
2022-08-23T11:43:38.777Z,100.00
2022-08-23T11:46:16.495Z,100.00
2022-08-23T11:48:48.562Z,100.00
2022-08-23T11:51:22.046Z,100.00
2022-08-23T11:53:59.643Z,100.00
2022-08-23T11:56:46.072Z,100.00
2022-08-23T11:59:24.878Z,100.00
2022-08-23T12:01:52.229Z,100.00
2022-08-23T12:04:32.301Z,100.00
2022-08-23T12:07:03.839Z,100.00
2022-08-23T12:09:49.079Z,100.00
2022-08-23T12:12:38.449Z,100.00
2022-08-23T12:15:07.128Z,100.00
2022-08-23T12:17:53.469Z,100.00
2022-08-23T12:20:26.785Z,100.00
2022-08-23T12:22:56.900Z,100.00
2022-08-23T12:25:23.814Z,100.00
2022-08-23T12:27:52.547Z,100.00
2022-08-23T12:30:20.642Z,100.00
2022-08-23T12:32:54.093Z,100.00
2022-08-23T12:35:30.448Z,100.00
2022-08-23T12:38:03.089Z,100.00
2022-08-23T12:40:32.560Z,100.00
2022-08-23T12:43:03.799Z,100.00
2022-08-23T12:45:36.210Z,100.00
2022-08-23T12:48:03.146Z,100.00
2022-08-23T12:50:33.504Z,100.00
2022-08-23T12:53:01.459Z,100.00
2022-08-23T12:55:30.369Z,100.00
2022-08-23T12:57:58.297Z,100.00
2022-08-23T13:00:26.703Z,100.00
2022-08-23T13:02:56.408Z,100.00
2022-08-23T13:05:27.403Z,100.00
2022-08-23T13:07:55.601Z,100.00
2022-08-23T13:10:22.317Z,100.00
2022-08-23T13:12:49.240Z,100.00
2022-08-23T13:15:32.661Z,100.00
2022-08-23T13:17:59.794Z,100.00
2022-08-23T13:20:26.467Z,100.00
2022-08-23T13:22:59.033Z,100.00
2022-08-23T13:25:32.942Z,100.00
2022-08-23T13:28:00.764Z,100.00
2022-08-23T13:30:29.906Z,100.00
2022-08-23T13:33:15.261Z,100.00
2022-08-23T13:35:47.195Z,100.00
2022-08-23T13:38:21.949Z,100.00
2022-08-23T13:40:58.066Z,100.00
2022-08-23T13:43:27.074Z,100.00
2022-08-23T13:45:54.778Z,98.99
2022-08-23T13:48:22.798Z,95.13
2022-08-23T13:50:50.503Z,95.67
2022-08-23T13:53:18.533Z,97.31
2022-08-23T13:55:47.597Z,100.00
2022-08-23T13:58:17.446Z,100.00
2022-08-23T14:00:45.909Z,100.00
2022-08-23T14:03:21.695Z,100.00
2022-08-23T14:05:48.576Z,100.00
2022-08-23T14:08:15.142Z,97.48
2022-08-23T14:10:43.643Z,95.81
2022-08-23T14:13:11.315Z,95.07
2022-08-23T14:18:25.088Z,94.01
2022-08-23T14:20:52.134Z,95.17
2022-08-23T14:23:19.052Z,96.18
2022-08-23T14:25:47.330Z,95.96
2022-08-23T14:28:14.059Z,93.73
2022-08-23T14:30:40.837Z,94.48
2022-08-23T14:33:07.504Z,95.25
2022-08-23T14:35:34.094Z,97.39
2022-08-23T14:38:03.456Z,98.98
2022-08-23T14:40:30.634Z,98.96
2022-08-23T14:42:58.852Z,100.00
2022-08-23T14:45:26.069Z,100.00
2022-08-23T14:47:52.857Z,100.00
2022-08-23T14:50:19.589Z,100.00
2022-08-23T14:52:46.402Z,98.61
2022-08-23T14:55:13.457Z,98.58
2022-08-23T14:57:40.324Z,97.40
2022-08-23T15:00:13.672Z,97.62
2022-08-23T15:02:42.901Z,96.95
2022-08-23T15:05:09.698Z,95.28
2022-08-23T15:07:36.473Z,94.49
2022-08-23T15:10:03.279Z,95.89
2022-08-23T15:15:21.714Z,93.40
2022-08-23T15:17:52.062Z,93.82
2022-08-23T15:20:19.506Z,94.99
2022-08-23T15:22:55.042Z,94.31
2022-08-23T15:25:23.163Z,95.29
2022-08-23T15:27:50.548Z,96.12
2022-08-23T15:30:18.562Z,96.87
2022-08-23T15:32:52.215Z,96.57
2022-08-23T15:35:22.816Z,97.22
2022-08-23T15:37:49.811Z,97.14
2022-08-23T15:40:16.668Z,96.64
2022-08-23T15:42:43.346Z,94.50
2022-08-23T15:45:10.536Z,93.29
2022-08-23T15:47:45.767Z,93.55
2022-08-23T15:50:12.326Z,94.23
2022-08-23T15:52:38.924Z,96.52
2022-08-23T15:55:06.134Z,94.60
2022-08-23T15:57:40.812Z,93.98
2022-08-23T16:00:07.973Z,96.67
2022-08-23T16:02:51.259Z,94.62
2022-08-23T16:05:22.793Z,94.90
2022-08-23T16:07:52.540Z,94.72
2022-08-23T16:10:19.164Z,96.17
2022-08-23T16:12:45.705Z,96.02
2022-08-23T16:15:12.314Z,97.11
2022-08-23T16:17:39.925Z,100.00
2022-08-23T16:20:07.924Z,100.00
2022-08-23T16:22:35.924Z,100.00
2022-08-23T16:25:03.397Z,100.00
2022-08-23T16:27:30.076Z,100.00
2022-08-23T16:29:56.718Z,100.00
2022-08-23T16:32:23.565Z,100.00
2022-08-23T16:34:50.354Z,100.00
2022-08-23T16:37:17.023Z,100.00
2022-08-23T16:39:45.298Z,100.00
2022-08-23T16:42:11.985Z,100.00
2022-08-23T16:44:38.625Z,100.00
2022-08-23T16:47:11.385Z,100.00
2022-08-23T16:49:38.263Z,100.00
2022-08-23T16:52:04.825Z,100.00
2022-08-23T16:54:31.567Z,100.00
2022-08-23T16:57:02.861Z,100.00
2022-08-23T16:59:29.867Z,100.00
2022-08-23T17:01:58.468Z,100.00
2022-08-23T17:04:30.189Z,100.00
2022-08-23T17:06:57.621Z,100.00
2022-08-23T17:09:25.894Z,100.00
2022-08-23T17:11:52.772Z,100.00
2022-08-23T17:14:21.256Z,100.00
2022-08-23T17:16:47.902Z,100.00
2022-08-23T17:19:14.541Z,100.00
2022-08-23T17:21:41.961Z,100.00
2022-08-23T17:24:09.387Z,100.00
2022-08-23T17:26:37.396Z,100.00
2022-08-23T17:29:04.861Z,100.00
2022-08-23T17:31:32.896Z,100.00
2022-08-23T17:34:03.413Z,100.00
2022-08-23T17:36:32.108Z,100.00
2022-08-23T17:38:58.996Z,100.00
2022-08-23T17:41:27.344Z,100.00
2022-08-23T17:43:54.112Z,100.00
2022-08-23T17:46:20.890Z,100.00
2022-08-23T17:48:48.832Z,100.00
2022-08-23T17:51:15.479Z,100.00
2022-08-23T17:53:42.162Z,100.00
2022-08-23T17:56:10.360Z,100.00
2022-08-23T17:58:39.101Z,100.00
2022-08-23T18:01:06.435Z,100.00
2022-08-23T18:03:33.103Z,100.00
2022-08-23T18:06:01.286Z,100.00
2022-08-23T18:08:43.615Z,100.00
2022-08-23T18:11:10.299Z,100.00
2022-08-23T18:13:36.927Z,100.00
2022-08-23T18:16:04.046Z,100.00
2022-08-23T18:18:30.803Z,100.00
2022-08-23T18:20:57.457Z,100.00
2022-08-23T18:23:26.408Z,100.00
2022-08-23T18:25:52.983Z,100.00
2022-08-23T18:28:19.620Z,100.00
2022-08-23T18:30:47.051Z,100.00
2022-08-23T18:33:14.682Z,100.00
2022-08-23T18:35:41.594Z,100.00
2022-08-23T18:38:08.834Z,100.00
2022-08-23T18:40:45.316Z,100.00
2022-08-23T18:43:13.055Z,100.00
2022-08-23T18:45:39.656Z,100.00
2022-08-23T18:48:06.289Z,100.00
2022-08-23T18:50:33.060Z,100.00
2022-08-23T18:52:59.652Z,100.00
2022-08-23T18:55:26.285Z,100.00
2022-08-23T18:57:54.890Z,100.00
2022-08-23T19:00:21.607Z,100.00
2022-08-23T19:02:48.172Z,100.00
2022-08-23T19:05:14.914Z,100.00
2022-08-23T19:07:41.488Z,100.00
2022-08-23T19:10:08.509Z,100.00
2022-08-23T19:12:35.083Z,100.00
2022-08-23T19:15:03.642Z,100.00
2022-08-23T19:17:30.220Z,100.00
2022-08-23T19:19:58.731Z,100.00
2022-08-23T19:22:25.317Z,100.00
2022-08-23T19:24:51.989Z,100.00
2022-08-23T19:27:18.689Z,100.00
2022-08-23T19:29:45.269Z,100.00
2022-08-23T19:32:14.021Z,100.00
2022-08-23T19:34:40.727Z,100.00
2022-08-23T19:37:10.789Z,100.00
2022-08-23T19:39:47.635Z,100.00
2022-08-23T19:42:14.253Z,100.00
2022-08-23T19:44:40.866Z,100.00
2022-08-23T19:47:07.483Z,100.00
2022-08-23T19:49:41.435Z,100.00
2022-08-23T19:52:08.063Z,100.00
2022-08-23T19:54:34.901Z,100.00
2022-08-23T19:57:01.791Z,100.00
2022-08-23T19:59:30.279Z,100.00
2022-08-23T20:01:58.725Z,100.00
2022-08-23T20:04:26.313Z,100.00
2022-08-23T20:06:54.605Z,100.00
2022-08-23T20:09:22.377Z,100.00
2022-08-23T20:11:49.417Z,100.00
2022-08-23T20:14:18.894Z,100.00
2022-08-23T20:16:45.674Z,100.00
2022-08-23T20:19:12.260Z,100.00
2022-08-23T20:21:39.769Z,100.00
2022-08-23T20:24:09.822Z,100.00
2022-08-23T20:26:40.576Z,100.00
2022-08-23T20:29:07.973Z,100.00
2022-08-23T20:31:36.755Z,100.00
2022-08-23T20:34:03.711Z,100.00
2022-08-23T20:36:31.363Z,100.00
2022-08-23T20:38:59.897Z,100.00
2022-08-23T20:41:28.871Z,100.00
2022-08-23T20:43:55.804Z,100.00
2022-08-23T20:46:22.562Z,100.00
2022-08-23T20:48:49.427Z,100.00
2022-08-23T20:51:15.986Z,100.00
2022-08-23T20:53:42.781Z,100.00
2022-08-23T20:56:10.065Z,100.00
2022-08-23T20:58:37.968Z,100.00
2022-08-23T21:01:05.434Z,100.00
2022-08-23T21:03:36.965Z,100.00
2022-08-23T21:06:04.630Z,100.00
2022-08-23T21:08:31.739Z,100.00
2022-08-23T21:10:58.365Z,100.00
2022-08-23T21:13:24.918Z,100.00
2022-08-23T21:15:52.887Z,100.00
2022-08-23T21:18:19.645Z,100.00
2022-08-23T21:20:46.260Z,100.00
2022-08-23T21:23:13.196Z,100.00
2022-08-23T21:25:39.836Z,100.00
2022-08-23T21:28:06.361Z,100.00
2022-08-23T21:30:32.980Z,100.00
2022-08-23T21:33:00.944Z,100.00
2022-08-23T21:35:27.571Z,100.00
2022-08-23T21:37:54.144Z,100.00
2022-08-23T21:40:20.850Z,100.00
2022-08-23T21:42:48.041Z,100.00
2022-08-23T21:45:14.623Z,100.00
2022-08-23T21:47:41.229Z,100.00
2022-08-23T21:50:09.837Z,100.00
2022-08-23T21:52:36.622Z,100.00
2022-08-23T21:55:04.204Z,100.00
2022-08-23T21:57:31.387Z,100.00
2022-08-23T21:59:58.295Z,100.00
2022-08-23T22:02:25.043Z,100.00
2022-08-23T22:04:51.653Z,100.00
2022-08-23T22:07:19.613Z,100.00
2022-08-23T22:09:47.084Z,100.00
2022-08-23T22:12:14.667Z,100.00
2022-08-23T22:14:41.402Z,100.00
2022-08-23T22:17:08.015Z,100.00
2022-08-23T22:19:34.587Z,100.00
2022-08-23T22:22:01.267Z,100.00
2022-08-23T22:24:29.289Z,100.00
2022-08-23T22:26:55.991Z,100.00
2022-08-23T22:29:22.755Z,100.00
2022-08-23T22:31:49.669Z,100.00
2022-08-23T22:34:16.719Z,100.00
2022-08-23T22:36:43.573Z,100.00
2022-08-23T22:39:12.841Z,100.00
2022-08-23T22:41:40.879Z,100.00
2022-08-23T22:44:07.532Z,100.00
2022-08-23T22:46:34.775Z,100.00
2022-08-23T22:49:01.742Z,100.00
2022-08-23T22:51:30.341Z,100.00
2022-08-23T22:53:58.188Z,100.00
2022-08-23T22:56:26.908Z,100.00
2022-08-23T22:58:54.901Z,100.00
2022-08-23T23:01:22.751Z,100.00
2022-08-23T23:03:49.691Z,100.00
2022-08-23T23:06:18.112Z,100.00
2022-08-23T23:08:44.691Z,100.00
2022-08-23T23:11:12.692Z,100.00
2022-08-23T23:13:40.221Z,100.00
2022-08-23T23:16:09.425Z,100.00
2022-08-23T23:18:36.419Z,100.00
2022-08-23T23:21:04.679Z,100.00
2022-08-23T23:23:32.141Z,100.00
2022-08-23T23:25:58.984Z,100.00
2022-08-23T23:28:25.626Z,100.00
2022-08-23T23:30:53.089Z,100.00
2022-08-23T23:33:21.661Z,100.00
2022-08-23T23:35:48.680Z,100.00
2022-08-23T23:38:15.653Z,100.00
2022-08-23T23:40:42.342Z,100.00
2022-08-23T23:43:09.165Z,100.00
2022-08-23T23:45:40.098Z,100.00
2022-08-23T23:48:08.302Z,100.00
2022-08-23T23:50:42.609Z,100.00
2022-08-23T23:53:13.249Z,100.00
2022-08-23T23:55:40.346Z,100.00
2022-08-23T23:58:07.357Z,100.00
